createdAt,value
2023-01-25T00:00:18.159Z,0.00
2023-01-25T00:01:18.152Z,0.00
2023-01-25T00:02:18.226Z,0.00
2023-01-25T00:03:18.218Z,0.00
2023-01-25T00:04:18.139Z,0.00
2023-01-25T00:05:18.119Z,0.00
2023-01-25T00:06:18.087Z,0.00
2023-01-25T00:07:18.058Z,0.00
2023-01-25T00:08:18.037Z,0.00
2023-01-25T00:09:18.065Z,0.00
2023-01-25T00:10:18.316Z,0.00
2023-01-25T00:11:18.027Z,0.00
2023-01-25T00:12:18.228Z,0.00
2023-01-25T00:13:17.986Z,0.00
2023-01-25T00:14:17.988Z,0.00
2023-01-25T00:15:17.957Z,0.00
2023-01-25T00:16:17.981Z,0.00
2023-01-25T00:17:17.927Z,0.00
2023-01-25T00:18:17.964Z,0.00
2023-01-25T00:19:17.876Z,0.00
2023-01-25T00:20:18.078Z,0.00
2023-01-25T00:21:17.878Z,0.00
2023-01-25T00:22:17.821Z,0.00
2023-01-25T00:23:17.809Z,0.00
2023-01-25T00:24:18.020Z,0.00
2023-01-25T00:25:17.974Z,0.00
2023-01-25T00:26:18.013Z,0.00
2023-01-25T00:27:17.779Z,0.00
2023-01-25T00:28:17.737Z,0.00
2023-01-25T00:29:17.731Z,0.00
2023-01-25T00:30:17.698Z,0.00
2023-01-25T00:31:17.853Z,0.00
2023-01-25T00:32:17.831Z,0.00
2023-01-25T00:33:17.636Z,0.00
2023-01-25T00:34:17.637Z,0.00
2023-01-25T00:35:17.612Z,0.00
2023-01-25T00:36:18.017Z,0.00
2023-01-25T00:37:17.826Z,0.00
2023-01-25T00:38:17.573Z,0.00
2023-01-25T00:39:17.778Z,0.00
2023-01-25T00:40:17.557Z,0.00
2023-01-25T00:41:17.544Z,0.00
2023-01-25T00:42:17.532Z,0.00
2023-01-25T00:43:17.506Z,0.00
2023-01-25T00:44:17.537Z,0.00
2023-01-25T00:45:17.459Z,0.00
2023-01-25T00:46:17.549Z,0.00
2023-01-25T00:47:17.453Z,0.00
2023-01-25T00:48:17.415Z,0.00
2023-01-25T00:49:17.476Z,0.00
2023-01-25T00:50:17.607Z,0.00
2023-01-25T00:51:17.436Z,0.00
2023-01-25T00:52:17.394Z,0.00
2023-01-25T00:53:17.360Z,0.00
2023-01-25T00:54:17.334Z,0.00
2023-01-25T00:55:17.306Z,0.00
2023-01-25T00:56:17.309Z,0.00
2023-01-25T00:57:17.296Z,0.00
2023-01-25T00:58:17.314Z,0.00
2023-01-25T00:59:17.268Z,0.00
2023-01-25T01:00:17.243Z,0.00
2023-01-25T01:01:17.267Z,0.00
2023-01-25T01:02:17.210Z,0.00
2023-01-25T01:03:17.196Z,0.00
2023-01-25T01:04:17.213Z,0.00
2023-01-25T01:05:17.242Z,0.00
2023-01-25T01:06:17.135Z,0.00
2023-01-25T01:07:17.140Z,0.00
2023-01-25T01:08:17.092Z,0.00
2023-01-25T01:09:17.090Z,0.00
2023-01-25T01:10:17.348Z,0.00
2023-01-25T01:11:17.135Z,0.00
2023-01-25T01:12:17.093Z,0.00
2023-01-25T01:13:17.063Z,0.00
2023-01-25T01:14:17.096Z,0.00
2023-01-25T01:15:16.990Z,0.00
2023-01-25T01:16:17.080Z,0.00
2023-01-25T01:17:16.969Z,0.00
2023-01-25T01:18:16.964Z,0.00
2023-01-25T01:19:16.971Z,0.00
2023-01-25T01:20:16.923Z,0.00
2023-01-25T01:21:16.893Z,0.00
2023-01-25T01:22:16.904Z,0.00
2023-01-25T01:23:16.894Z,0.00
2023-01-25T01:24:16.964Z,0.00
2023-01-25T01:25:16.843Z,0.00
2023-01-25T01:26:16.871Z,0.00
2023-01-25T01:27:16.829Z,0.00
2023-01-25T01:28:16.785Z,0.00
2023-01-25T01:29:16.791Z,0.00
2023-01-25T01:30:16.792Z,0.00
2023-01-25T01:31:16.829Z,0.00
2023-01-25T01:32:16.891Z,0.00
2023-01-25T01:33:16.719Z,0.00
2023-01-25T01:34:16.701Z,0.00
2023-01-25T01:35:16.686Z,0.00
2023-01-25T01:36:16.670Z,0.00
2023-01-25T01:37:16.671Z,0.00
2023-01-25T01:38:16.634Z,0.00
2023-01-25T01:39:16.814Z,0.00
2023-01-25T01:40:16.629Z,0.00
2023-01-25T01:41:16.626Z,0.00
2023-01-25T01:42:16.575Z,0.00
2023-01-25T01:43:16.579Z,0.00
2023-01-25T01:44:16.571Z,0.00
2023-01-25T01:45:16.545Z,0.00
2023-01-25T01:46:16.666Z,0.00
2023-01-25T01:47:16.508Z,0.00
2023-01-25T01:48:16.491Z,0.00
2023-01-25T01:49:16.479Z,0.00
2023-01-25T01:50:16.476Z,0.00
2023-01-25T01:51:18.541Z,0.00
2023-01-25T01:52:16.429Z,0.00
2023-01-25T01:53:16.417Z,0.00
2023-01-25T01:54:16.387Z,0.00
2023-01-25T01:55:16.385Z,0.00
2023-01-25T01:56:16.383Z,0.00
2023-01-25T01:57:16.338Z,0.00
2023-01-25T01:58:16.320Z,0.00
2023-01-25T01:59:16.323Z,0.00
2023-01-25T02:00:16.298Z,0.00
2023-01-25T02:01:16.356Z,0.00
2023-01-25T02:02:16.402Z,0.00
2023-01-25T02:03:16.249Z,0.00
2023-01-25T02:04:16.434Z,0.00
2023-01-25T02:05:16.204Z,0.00
2023-01-25T02:06:16.406Z,0.00
2023-01-25T02:07:16.183Z,0.00
2023-01-25T02:08:16.178Z,0.00
2023-01-25T02:09:16.160Z,0.00
2023-01-25T02:10:16.136Z,0.00
2023-01-25T02:11:16.126Z,0.00
2023-01-25T02:12:16.119Z,0.00
2023-01-25T02:13:16.083Z,0.00
2023-01-25T02:14:16.068Z,0.00
2023-01-25T02:15:16.056Z,0.00
2023-01-25T02:16:16.092Z,0.00
2023-01-25T02:17:16.026Z,0.00
2023-01-25T02:18:16.030Z,0.00
2023-01-25T02:19:15.993Z,0.00
2023-01-25T02:20:15.977Z,0.00
2023-01-25T02:21:15.983Z,0.00
2023-01-25T02:22:15.952Z,0.00
2023-01-25T02:23:15.935Z,0.00
2023-01-25T02:24:16.054Z,0.00
2023-01-25T02:25:15.897Z,0.00
2023-01-25T02:26:15.894Z,0.00
2023-01-25T02:27:15.865Z,0.00
2023-01-25T02:28:15.863Z,0.00
2023-01-25T02:29:15.841Z,0.00
2023-01-25T02:30:15.823Z,0.00
2023-01-25T02:31:15.973Z,0.00
2023-01-25T02:32:15.868Z,0.00
2023-01-25T02:33:15.797Z,0.00
2023-01-25T02:34:15.811Z,0.00
2023-01-25T02:35:15.755Z,0.00
2023-01-25T02:36:15.735Z,0.00
2023-01-25T02:37:15.736Z,0.00
2023-01-25T02:38:15.711Z,0.00
2023-01-25T02:39:15.715Z,0.00
2023-01-25T02:40:15.679Z,0.00
2023-01-25T02:41:15.700Z,0.00
2023-01-25T02:42:15.655Z,0.00
2023-01-25T02:43:15.664Z,0.00
2023-01-25T02:44:15.625Z,0.00
2023-01-25T02:45:15.600Z,0.00
2023-01-25T02:46:15.680Z,0.00
2023-01-25T02:47:15.573Z,0.00
2023-01-25T02:48:15.734Z,0.00
2023-01-25T02:49:15.539Z,0.00
2023-01-25T02:50:16.054Z,0.00
2023-01-25T02:51:15.704Z,0.00
2023-01-25T02:52:15.682Z,0.00
2023-01-25T02:53:15.497Z,0.00
2023-01-25T02:54:15.435Z,0.00
2023-01-25T02:55:15.438Z,0.00
2023-01-25T02:56:15.410Z,0.00
2023-01-25T02:57:15.412Z,0.00
2023-01-25T02:58:15.379Z,0.00
2023-01-25T02:59:15.376Z,0.00
2023-01-25T03:00:15.385Z,0.00
2023-01-25T03:01:15.478Z,0.00
2023-01-25T03:02:15.418Z,0.00
2023-01-25T03:03:15.333Z,0.00
2023-01-25T03:04:15.300Z,0.00
2023-01-25T03:05:15.283Z,0.00
2023-01-25T03:06:15.288Z,0.00
2023-01-25T03:07:15.248Z,0.00
2023-01-25T03:08:15.220Z,0.00
2023-01-25T03:09:15.207Z,0.00
2023-01-25T03:10:15.190Z,0.00
2023-01-25T03:11:15.183Z,0.00
2023-01-25T03:12:15.177Z,0.00
2023-01-25T03:13:15.152Z,0.00
2023-01-25T03:14:15.146Z,0.00
2023-01-25T03:15:15.129Z,0.00
2023-01-25T03:16:15.144Z,0.00
2023-01-25T03:17:15.099Z,0.00
2023-01-25T03:18:15.055Z,0.00
2023-01-25T03:19:15.084Z,0.00
2023-01-25T03:20:15.054Z,0.00
2023-01-25T03:21:15.044Z,0.00
2023-01-25T03:22:15.027Z,0.00
2023-01-25T03:23:14.990Z,0.00
2023-01-25T03:24:15.117Z,0.00
2023-01-25T03:25:15.013Z,0.00
2023-01-25T03:26:14.981Z,0.00
2023-01-25T03:27:14.946Z,0.00
2023-01-25T03:28:15.176Z,0.00
2023-01-25T03:29:14.933Z,0.00
2023-01-25T03:30:14.899Z,0.00
2023-01-25T03:31:14.931Z,0.00
2023-01-25T03:32:15.074Z,0.00
2023-01-25T03:33:14.863Z,0.00
2023-01-25T03:34:14.839Z,0.00
2023-01-25T03:35:14.836Z,0.00
2023-01-25T03:38:02.316Z,0.00
2023-01-25T03:39:02.199Z,0.00
2023-01-25T03:40:02.180Z,0.00
2023-01-25T03:41:02.135Z,0.00
2023-01-25T03:42:02.133Z,0.00
2023-01-25T03:43:02.128Z,0.00
2023-01-25T03:44:02.084Z,0.00
2023-01-25T03:45:02.078Z,0.00
2023-01-25T03:46:02.124Z,0.00
2023-01-25T03:47:02.141Z,0.00
2023-01-25T03:48:02.042Z,0.00
2023-01-25T03:49:02.011Z,0.00
2023-01-25T03:50:02.051Z,0.00
2023-01-25T03:51:01.968Z,0.00
2023-01-25T03:52:01.963Z,0.00
2023-01-25T03:53:01.967Z,0.00
2023-01-25T03:54:01.975Z,0.00
2023-01-25T03:55:01.961Z,0.00
2023-01-25T03:56:01.964Z,0.00
2023-01-25T03:57:01.955Z,0.00
2023-01-25T03:58:01.888Z,0.00
2023-01-25T03:59:01.911Z,0.00
2023-01-25T04:00:01.867Z,0.00
2023-01-25T04:01:01.948Z,0.00
2023-01-25T04:02:01.902Z,0.00
2023-01-25T04:03:01.826Z,0.00
2023-01-25T04:04:01.810Z,0.00
2023-01-25T04:05:01.809Z,0.00
2023-01-25T04:06:01.755Z,0.00
2023-01-25T04:07:01.750Z,0.00
2023-01-25T04:08:01.730Z,0.00
2023-01-25T04:09:01.718Z,0.00
2023-01-25T04:10:01.741Z,0.00
2023-01-25T04:11:01.891Z,0.00
2023-01-25T04:12:01.665Z,0.00
2023-01-25T04:13:01.669Z,0.00
2023-01-25T04:14:01.627Z,0.00
2023-01-25T04:15:01.611Z,0.00
2023-01-25T04:16:01.597Z,0.00
2023-01-25T04:17:01.588Z,0.00
2023-01-25T04:18:01.563Z,0.00
2023-01-25T04:19:01.579Z,0.00
2023-01-25T04:20:01.596Z,0.00
2023-01-25T04:21:01.574Z,0.00
2023-01-25T04:22:01.570Z,0.00
2023-01-25T04:23:01.535Z,0.00
2023-01-25T04:24:01.756Z,0.00
2023-01-25T04:25:01.465Z,0.00
2023-01-25T04:26:01.684Z,0.00
2023-01-25T04:27:01.432Z,0.00
2023-01-25T04:28:01.421Z,0.00
2023-01-25T04:29:01.612Z,0.00
2023-01-25T04:30:01.372Z,0.00
2023-01-25T04:31:01.377Z,0.00
2023-01-25T04:32:01.492Z,0.00
2023-01-25T04:33:01.336Z,0.00
2023-01-25T04:34:01.318Z,0.00
2023-01-25T04:35:01.317Z,0.00
2023-01-25T04:36:01.345Z,0.00
2023-01-25T04:37:01.264Z,0.00
2023-01-25T04:38:01.266Z,0.00
2023-01-25T04:39:01.257Z,0.00
2023-01-25T04:40:01.233Z,0.00
2023-01-25T04:41:01.226Z,0.00
2023-01-25T04:42:01.212Z,0.00
2023-01-25T04:43:01.182Z,0.00
2023-01-25T04:44:01.150Z,0.00
2023-01-25T04:45:01.157Z,0.00
2023-01-25T04:46:01.238Z,0.00
2023-01-25T04:47:01.106Z,0.00
2023-01-25T04:48:01.113Z,0.00
2023-01-25T04:49:01.095Z,0.00
2023-01-25T04:50:01.056Z,0.00
2023-01-25T04:51:01.257Z,0.00
2023-01-25T04:52:01.034Z,0.00
2023-01-25T04:53:01.028Z,0.00
2023-01-25T04:54:01.009Z,0.00
2023-01-25T04:55:00.985Z,0.00
2023-01-25T04:56:00.999Z,0.00
2023-01-25T04:57:00.951Z,0.00
2023-01-25T04:58:01.249Z,0.00
2023-01-25T04:59:00.930Z,0.00
2023-01-25T05:00:00.943Z,0.00
2023-01-25T05:01:00.995Z,0.00
2023-01-25T05:02:00.974Z,0.00
2023-01-25T05:03:00.856Z,0.00
2023-01-25T05:04:00.849Z,0.00
2023-01-25T05:05:01.027Z,0.00
2023-01-25T05:06:00.825Z,0.00
2023-01-25T05:07:00.841Z,0.00
2023-01-25T05:08:00.799Z,0.00
2023-01-25T05:09:00.803Z,0.00
2023-01-25T05:10:00.772Z,0.00
2023-01-25T05:11:00.735Z,0.00
2023-01-25T05:12:00.729Z,0.00
2023-01-25T05:13:00.713Z,0.00
2023-01-25T05:14:00.916Z,0.00
2023-01-25T05:15:00.715Z,0.00
2023-01-25T05:16:00.656Z,0.00
2023-01-25T05:17:00.695Z,0.00
2023-01-25T05:18:00.626Z,0.00
2023-01-25T05:19:00.637Z,0.00
2023-01-25T05:20:00.609Z,0.00
2023-01-25T05:21:00.588Z,0.00
2023-01-25T05:22:00.559Z,0.00
2023-01-25T05:23:00.552Z,0.00
2023-01-25T05:24:00.616Z,0.00
2023-01-25T05:25:00.514Z,0.00
2023-01-25T05:26:00.514Z,0.00
2023-01-25T05:27:00.509Z,0.00
2023-01-25T05:28:00.515Z,0.00
2023-01-25T05:29:00.457Z,0.00
2023-01-25T05:30:00.463Z,0.00
2023-01-25T05:31:00.490Z,0.00
2023-01-25T05:32:00.547Z,0.00
2023-01-25T05:33:00.392Z,0.00
2023-01-25T05:34:00.396Z,0.00
2023-01-25T05:35:01.074Z,0.00
2023-01-25T05:36:00.440Z,0.00
2023-01-25T05:37:00.545Z,0.00
2023-01-25T05:38:00.367Z,0.00
2023-01-25T05:39:00.416Z,0.00
2023-01-25T05:40:00.294Z,0.00
2023-01-25T05:41:00.275Z,0.00
2023-01-25T05:42:00.284Z,0.00
2023-01-25T05:43:00.260Z,0.00
2023-01-25T05:44:00.260Z,0.00
2023-01-25T05:45:00.208Z,0.00
2023-01-25T05:46:00.344Z,0.00
2023-01-25T05:47:00.252Z,0.00
2023-01-25T05:48:00.191Z,0.00
2023-01-25T05:49:00.235Z,0.00
2023-01-25T05:50:00.211Z,0.00
2023-01-25T05:51:00.144Z,0.00
2023-01-25T05:52:00.178Z,0.00
2023-01-25T05:53:00.085Z,0.00
2023-01-25T05:54:00.116Z,0.00
2023-01-25T05:55:00.275Z,0.00
2023-01-25T05:56:00.022Z,0.00
2023-01-25T05:57:00.074Z,0.00
2023-01-25T05:58:00.011Z,0.00
2023-01-25T05:58:59.983Z,0.00
2023-01-25T06:00:00.047Z,0.00
2023-01-25T06:01:01.305Z,0.00
2023-01-25T06:02:00.010Z,0.00
2023-01-25T06:03:00.075Z,0.00
2023-01-25T06:04:00.152Z,0.00
2023-01-25T06:04:59.940Z,0.00
2023-01-25T06:05:59.897Z,0.00
2023-01-25T06:06:59.870Z,0.00
2023-01-25T06:07:59.873Z,0.00
2023-01-25T06:08:59.841Z,0.00
2023-01-25T06:09:59.827Z,0.00
2023-01-25T06:10:59.823Z,0.00
2023-01-25T06:11:59.846Z,0.00
2023-01-25T06:12:59.829Z,0.00
2023-01-25T06:13:59.742Z,0.00
2023-01-25T06:14:59.737Z,0.00
2023-01-25T06:15:59.805Z,0.00
2023-01-25T06:16:59.692Z,0.00
2023-01-25T06:17:59.732Z,0.00
2023-01-25T06:18:59.892Z,0.00
2023-01-25T06:19:59.714Z,0.00
2023-01-25T06:20:59.696Z,0.00
2023-01-25T06:21:59.630Z,0.00
2023-01-25T06:22:59.635Z,0.00
2023-01-25T06:23:59.632Z,0.00
2023-01-25T06:24:59.632Z,0.00
2023-01-25T06:25:59.575Z,0.00
2023-01-25T06:26:59.567Z,0.00
2023-01-25T06:27:59.560Z,0.00
2023-01-25T06:28:59.514Z,0.00
2023-01-25T06:29:59.513Z,0.00
2023-01-25T06:30:59.591Z,0.00
2023-01-25T06:31:59.599Z,0.00
2023-01-25T06:32:59.451Z,0.00
2023-01-25T06:34:00.058Z,0.00
2023-01-25T06:34:59.632Z,0.00
2023-01-25T06:35:59.409Z,0.00
2023-01-25T06:36:59.385Z,0.00
2023-01-25T06:37:59.380Z,0.00
2023-01-25T06:38:59.390Z,4.00
2023-01-25T06:39:59.337Z,0.00
2023-01-25T06:40:59.746Z,0.00
2023-01-25T06:41:59.308Z,0.00
2023-01-25T06:42:59.513Z,4.00
2023-01-25T06:43:59.272Z,4.00
2023-01-25T06:44:59.248Z,0.00
2023-01-25T06:45:59.443Z,4.00
2023-01-25T06:46:59.524Z,4.00
2023-01-25T06:47:59.224Z,4.00
2023-01-25T06:48:59.200Z,4.00
2023-01-25T06:49:59.401Z,4.00
2023-01-25T06:50:59.179Z,8.00
2023-01-25T06:51:59.168Z,8.00
2023-01-25T06:52:59.201Z,8.00
2023-01-25T06:53:59.385Z,12.00
2023-01-25T06:54:59.149Z,12.00
2023-01-25T06:55:59.114Z,12.00
2023-01-25T06:56:59.449Z,12.00
2023-01-25T06:57:59.077Z,16.00
2023-01-25T06:58:59.038Z,12.00
2023-01-25T06:59:59.060Z,16.00
2023-01-25T07:00:59.028Z,16.00
2023-01-25T07:01:59.090Z,16.00
2023-01-25T07:02:59.026Z,20.00
2023-01-25T07:03:59.021Z,20.00
2023-01-25T07:04:58.961Z,20.00
2023-01-25T07:05:58.959Z,24.00
2023-01-25T07:06:58.914Z,28.00
2023-01-25T07:07:58.897Z,28.00
2023-01-25T07:08:58.879Z,28.00
2023-01-25T07:09:58.861Z,32.00
2023-01-25T07:10:58.899Z,32.00
2023-01-25T07:11:58.857Z,36.00
2023-01-25T07:12:58.821Z,36.00
2023-01-25T07:13:58.866Z,40.00
2023-01-25T07:14:58.811Z,40.00
2023-01-25T07:15:58.803Z,44.00
2023-01-25T07:16:58.780Z,48.00
2023-01-25T07:18:08.296Z,52.00
2023-01-25T07:18:58.735Z,52.00
2023-01-25T07:19:58.723Z,56.00
2023-01-25T07:20:58.709Z,60.00
2023-01-25T07:21:58.709Z,60.00
2023-01-25T07:23:01.151Z,64.00
2023-01-25T07:23:58.723Z,64.00
2023-01-25T07:24:58.873Z,68.00
2023-01-25T07:25:58.615Z,72.00
2023-01-25T07:26:58.618Z,76.00
2023-01-25T07:27:58.591Z,80.00
2023-01-25T07:28:58.642Z,80.00
2023-01-25T07:29:58.587Z,84.00
2023-01-25T07:30:58.761Z,84.00
2023-01-25T07:31:58.607Z,88.00
2023-01-25T07:32:58.524Z,96.00
2023-01-25T07:33:58.542Z,96.00
2023-01-25T07:34:58.723Z,100.00
2023-01-25T07:35:58.463Z,104.00
2023-01-25T07:36:58.458Z,104.00
2023-01-25T07:37:58.697Z,108.00
2023-01-25T07:38:58.426Z,112.00
2023-01-25T07:39:58.419Z,116.00
2023-01-25T07:40:58.604Z,120.00
2023-01-25T07:41:58.369Z,120.00
2023-01-25T07:42:58.364Z,124.00
2023-01-25T07:43:58.351Z,132.00
2023-01-25T07:44:58.349Z,136.00
2023-01-25T07:45:58.313Z,136.00
2023-01-25T07:46:58.307Z,136.00
2023-01-25T07:47:58.302Z,140.00
2023-01-25T07:48:58.288Z,148.00
2023-01-25T07:49:58.288Z,156.00
2023-01-25T07:50:58.245Z,160.00
2023-01-25T07:51:58.209Z,164.00
2023-01-25T07:52:58.396Z,168.00
2023-01-25T07:53:58.219Z,176.00
2023-01-25T07:54:58.194Z,180.00
2023-01-25T07:55:58.163Z,188.00
2023-01-25T07:56:58.142Z,192.00
2023-01-25T07:57:58.149Z,196.00
2023-01-25T07:58:58.131Z,196.00
2023-01-25T07:59:58.123Z,200.00
2023-01-25T08:00:58.079Z,200.00
2023-01-25T08:01:58.079Z,204.00
2023-01-25T08:02:58.054Z,208.00
2023-01-25T08:03:58.083Z,216.00
2023-01-25T08:04:58.025Z,220.00
2023-01-25T08:05:57.991Z,220.00
2023-01-25T08:06:58.034Z,216.00
2023-01-25T08:07:58.019Z,220.00
2023-01-25T08:08:57.941Z,220.00
2023-01-25T08:09:58.199Z,228.00
2023-01-25T08:10:57.924Z,224.00
2023-01-25T08:11:57.919Z,228.00
2023-01-25T08:12:57.900Z,228.00
2023-01-25T08:13:57.879Z,224.00
2023-01-25T08:14:57.848Z,228.00
2023-01-25T08:15:57.889Z,232.00
2023-01-25T08:16:57.836Z,228.00
2023-01-25T08:17:57.799Z,228.00
2023-01-25T08:18:57.859Z,232.00
2023-01-25T08:19:57.796Z,236.00
2023-01-25T08:20:57.777Z,236.00
2023-01-25T08:21:57.837Z,240.00
2023-01-25T08:22:57.737Z,240.00
2023-01-25T08:23:57.767Z,240.00
2023-01-25T08:24:57.718Z,240.00
2023-01-25T08:25:57.706Z,240.00
2023-01-25T08:26:57.668Z,244.00
2023-01-25T08:27:57.867Z,244.00
2023-01-25T08:28:57.657Z,248.00
2023-01-25T08:29:57.636Z,252.00
2023-01-25T08:30:57.831Z,252.00
2023-01-25T08:31:57.847Z,256.00
2023-01-25T08:32:57.573Z,260.00
2023-01-25T08:33:57.567Z,260.00
2023-01-25T08:34:57.782Z,260.00
2023-01-25T08:35:57.572Z,264.00
2023-01-25T08:36:57.513Z,268.00
2023-01-25T08:37:57.503Z,272.00
2023-01-25T08:38:57.709Z,280.00
2023-01-25T08:39:57.455Z,288.00
2023-01-25T08:40:57.459Z,292.00
2023-01-25T08:41:57.527Z,300.00
2023-01-25T08:42:57.617Z,308.00
2023-01-25T08:43:57.421Z,316.00
2023-01-25T08:44:57.581Z,316.00
2023-01-25T08:45:57.373Z,320.00
2023-01-25T08:46:57.341Z,320.00
2023-01-25T08:47:57.546Z,320.00
2023-01-25T08:48:57.332Z,324.00
2023-01-25T08:49:57.315Z,324.00
2023-01-25T08:50:57.302Z,324.00
2023-01-25T08:51:57.281Z,324.00
2023-01-25T08:52:57.271Z,332.00
2023-01-25T08:53:57.231Z,340.00
2023-01-25T08:54:57.224Z,352.00
2023-01-25T08:55:57.222Z,368.00
2023-01-25T08:56:57.181Z,384.00
2023-01-25T08:57:57.628Z,392.00
2023-01-25T08:58:57.199Z,396.00
2023-01-25T08:59:57.359Z,400.00
2023-01-25T09:00:57.128Z,400.00
2023-01-25T09:01:57.152Z,396.00
2023-01-25T09:02:57.112Z,396.00
2023-01-25T09:03:57.241Z,404.00
2023-01-25T09:04:57.077Z,408.00
2023-01-25T09:05:57.047Z,412.00
2023-01-25T09:06:57.035Z,420.00
2023-01-25T09:07:57.023Z,424.00
2023-01-25T09:08:57.021Z,432.00
2023-01-25T09:09:56.996Z,444.00
2023-01-25T09:10:56.967Z,448.00
2023-01-25T09:11:56.951Z,456.00
2023-01-25T09:12:56.942Z,472.00
2023-01-25T09:13:56.939Z,484.00
2023-01-25T09:14:57.123Z,488.00
2023-01-25T09:15:56.903Z,496.00
2023-01-25T09:16:56.868Z,496.00
2023-01-25T09:17:56.881Z,500.00
2023-01-25T09:18:56.849Z,500.00
2023-01-25T09:19:56.823Z,512.00
2023-01-25T09:20:56.841Z,524.00
2023-01-25T09:21:56.841Z,532.00
2023-01-25T09:22:56.803Z,540.00
2023-01-25T09:24:05.924Z,548.00
2023-01-25T09:24:56.762Z,560.00
2023-01-25T09:25:56.734Z,568.00
2023-01-25T09:27:00.151Z,584.00
2023-01-25T09:27:56.744Z,592.00
2023-01-25T09:28:56.689Z,608.00
2023-01-25T09:30:16.688Z,616.00
2023-01-25T09:31:14.678Z,632.00
2023-01-25T09:31:56.744Z,624.00
2023-01-25T09:32:56.813Z,620.00
2023-01-25T09:33:56.667Z,608.00
2023-01-25T09:34:56.626Z,596.00
2023-01-25T09:35:56.597Z,592.00
2023-01-25T09:36:56.562Z,584.00
2023-01-25T09:37:56.589Z,580.00
2023-01-25T09:38:56.555Z,576.00
2023-01-25T09:39:56.524Z,576.00
2023-01-25T09:40:56.539Z,576.00
2023-01-25T09:41:58.409Z,584.00
2023-01-25T09:42:56.469Z,584.00
2023-01-25T09:43:56.889Z,592.00
2023-01-25T09:44:56.479Z,600.00
2023-01-25T09:45:56.677Z,612.00
2023-01-25T09:46:56.477Z,620.00
2023-01-25T09:47:56.450Z,624.00
2023-01-25T09:49:06.782Z,620.00
2023-01-25T09:49:56.370Z,620.00
2023-01-25T09:50:56.566Z,620.00
2023-01-25T09:51:56.377Z,624.00
2023-01-25T09:52:56.336Z,616.00
2023-01-25T09:53:56.334Z,612.00
2023-01-25T09:54:56.341Z,608.00
2023-01-25T09:55:56.313Z,608.00
2023-01-25T09:56:56.457Z,600.00
2023-01-25T09:57:56.280Z,596.00
2023-01-25T09:58:56.231Z,592.00
2023-01-25T09:59:56.221Z,584.00
2023-01-25T10:00:56.195Z,596.00
2023-01-25T10:01:56.252Z,604.00
2023-01-25T10:02:56.246Z,600.00
2023-01-25T10:03:56.164Z,600.00
2023-01-25T10:04:56.162Z,604.00
2023-01-25T10:05:56.134Z,620.00
2023-01-25T10:07:00.906Z,632.00
2023-01-25T10:07:56.100Z,636.00
2023-01-25T10:08:56.090Z,648.00
2023-01-25T10:09:56.054Z,660.00
2023-01-25T10:10:56.237Z,672.00
2023-01-25T10:11:56.037Z,684.00
2023-01-25T10:12:56.025Z,700.00
2023-01-25T10:13:56.032Z,716.00
2023-01-25T10:14:56.000Z,728.00
2023-01-25T10:15:56.029Z,736.00
2023-01-25T10:16:55.949Z,740.00
2023-01-25T10:17:55.983Z,740.00
2023-01-25T10:18:55.931Z,736.00
2023-01-25T10:19:55.912Z,740.00
2023-01-25T10:20:55.905Z,744.00
2023-01-25T10:21:55.885Z,744.00
2023-01-25T10:22:55.865Z,752.00
2023-01-25T10:23:55.962Z,764.00
2023-01-25T10:24:55.839Z,780.00
2023-01-25T10:25:55.848Z,800.00
2023-01-25T10:26:55.825Z,804.00
2023-01-25T10:27:55.821Z,808.00
2023-01-25T10:28:55.785Z,808.00
2023-01-25T10:29:55.754Z,828.00
2023-01-25T10:30:55.973Z,836.00
2023-01-25T10:31:56.016Z,844.00
2023-01-25T10:32:56.427Z,848.00
2023-01-25T10:33:55.760Z,856.00
2023-01-25T10:35:08.746Z,872.00
2023-01-25T10:35:55.674Z,876.00
2023-01-25T10:36:55.711Z,876.00
2023-01-25T10:37:55.623Z,868.00
2023-01-25T10:38:55.635Z,844.00
2023-01-25T10:39:55.624Z,824.00
2023-01-25T10:40:55.729Z,812.00
2023-01-25T10:41:55.591Z,820.00
2023-01-25T10:42:55.582Z,848.00
2023-01-25T10:43:55.533Z,876.00
2023-01-25T10:44:55.527Z,880.00
2023-01-25T10:45:55.511Z,884.00
2023-01-25T10:46:55.517Z,876.00
2023-01-25T10:47:55.487Z,876.00
2023-01-25T10:48:55.670Z,872.00
2023-01-25T10:49:55.493Z,868.00
2023-01-25T10:50:55.475Z,868.00
2023-01-25T10:51:55.442Z,868.00
2023-01-25T10:52:55.402Z,868.00
2023-01-25T10:53:55.396Z,868.00
2023-01-25T10:54:55.361Z,836.00
2023-01-25T10:55:55.343Z,832.00
2023-01-25T10:56:55.338Z,848.00
2023-01-25T10:57:55.317Z,836.00
2023-01-25T10:58:55.493Z,808.00
2023-01-25T10:59:55.300Z,772.00
2023-01-25T11:00:55.287Z,768.00
2023-01-25T11:01:55.589Z,848.00
2023-01-25T11:02:55.768Z,860.00
2023-01-25T11:03:55.237Z,824.00
2023-01-25T11:04:55.234Z,852.00
2023-01-25T11:05:55.215Z,884.00
2023-01-25T11:06:55.206Z,848.00
2023-01-25T11:07:55.172Z,780.00
2023-01-25T11:08:55.344Z,836.00
2023-01-25T11:09:55.127Z,908.00
2023-01-25T11:10:55.117Z,932.00
2023-01-25T11:11:55.119Z,936.00
2023-01-25T11:12:55.081Z,932.00
2023-01-25T11:13:55.075Z,936.00
2023-01-25T11:14:55.077Z,940.00
2023-01-25T11:15:55.073Z,940.00
2023-01-25T11:16:55.059Z,948.00
2023-01-25T11:17:55.038Z,956.00
2023-01-25T11:18:55.023Z,960.00
2023-01-25T11:19:55.035Z,968.00
2023-01-25T11:20:54.964Z,952.00
2023-01-25T11:21:54.995Z,932.00
2023-01-25T11:22:54.961Z,964.00
2023-01-25T11:23:54.958Z,936.00
2023-01-25T11:24:55.147Z,916.00
2023-01-25T11:25:54.902Z,936.00
2023-01-25T11:26:54.872Z,940.00
2023-01-25T11:27:54.850Z,936.00
2023-01-25T11:28:54.841Z,940.00
2023-01-25T11:29:54.839Z,896.00
2023-01-25T11:30:54.931Z,940.00
2023-01-25T11:31:54.929Z,924.00
2023-01-25T11:32:54.817Z,952.00
2023-01-25T11:33:54.781Z,952.00
2023-01-25T11:34:54.757Z,968.00
2023-01-25T11:35:54.739Z,984.00
2023-01-25T11:36:54.725Z,980.00
2023-01-25T11:37:54.731Z,968.00
2023-01-25T11:38:54.695Z,956.00
2023-01-25T11:39:54.688Z,964.00
2023-01-25T11:40:54.671Z,952.00
2023-01-25T11:41:54.651Z,940.00
2023-01-25T11:42:54.631Z,928.00
2023-01-25T11:43:54.625Z,912.00
2023-01-25T11:44:54.637Z,904.00
2023-01-25T11:45:54.618Z,872.00
2023-01-25T11:46:54.574Z,832.00
2023-01-25T11:47:54.585Z,876.00
2023-01-25T11:48:54.532Z,876.00
2023-01-25T11:49:54.544Z,892.00
2023-01-25T11:50:54.508Z,896.00
2023-01-25T11:51:54.973Z,924.00
2023-01-25T11:52:54.471Z,928.00
2023-01-25T11:53:54.498Z,928.00
2023-01-25T11:54:54.487Z,924.00
2023-01-25T11:55:54.425Z,944.00
2023-01-25T11:56:54.420Z,964.00
2023-01-25T11:57:54.402Z,968.00
2023-01-25T11:58:54.377Z,940.00
2023-01-25T11:59:54.364Z,944.00
2023-01-25T12:00:54.363Z,1008.00
2023-01-25T12:01:54.542Z,1008.00
2023-01-25T12:02:54.378Z,972.00
2023-01-25T12:03:54.376Z,940.00
2023-01-25T12:04:54.517Z,924.00
2023-01-25T12:05:54.278Z,880.00
2023-01-25T12:06:54.268Z,860.00
2023-01-25T12:07:54.480Z,900.00
2023-01-25T12:08:54.261Z,936.00
2023-01-25T12:09:54.284Z,948.00
2023-01-25T12:10:54.188Z,968.00
2023-01-25T12:11:54.804Z,988.00
2023-01-25T12:12:54.181Z,984.00
2023-01-25T12:13:54.152Z,968.00
2023-01-25T12:14:54.148Z,964.00
2023-01-25T12:15:54.384Z,968.00
2023-01-25T12:16:54.329Z,972.00
2023-01-25T12:17:54.090Z,984.00
2023-01-25T12:18:54.071Z,972.00
2023-01-25T12:19:54.061Z,944.00
2023-01-25T12:20:54.259Z,972.00
2023-01-25T12:21:54.032Z,992.00
2023-01-25T12:22:54.018Z,1024.00
2023-01-25T12:23:54.016Z,1024.00
2023-01-25T12:24:54.207Z,1044.00
2023-01-25T12:25:54.000Z,1012.00
2023-01-25T12:26:53.955Z,972.00
2023-01-25T12:27:53.956Z,980.00
2023-01-25T12:28:53.945Z,1008.00
2023-01-25T12:29:53.903Z,996.00
2023-01-25T12:30:53.944Z,976.00
2023-01-25T12:31:53.963Z,996.00
2023-01-25T12:32:57.259Z,968.00
2023-01-25T12:33:53.848Z,912.00
2023-01-25T12:34:53.837Z,880.00
2023-01-25T12:35:54.039Z,832.00
2023-01-25T12:36:53.830Z,792.00
2023-01-25T12:37:53.804Z,792.00
2023-01-25T12:38:53.802Z,792.00
2023-01-25T12:39:53.758Z,768.00
2023-01-25T12:40:53.730Z,776.00
2023-01-25T12:41:53.763Z,808.00
2023-01-25T12:42:53.722Z,820.00
2023-01-25T12:43:53.687Z,820.00
2023-01-25T12:44:53.759Z,800.00
2023-01-25T12:45:53.675Z,772.00
2023-01-25T12:46:53.688Z,748.00
2023-01-25T12:47:53.652Z,772.00
2023-01-25T12:48:53.631Z,784.00
2023-01-25T12:49:53.598Z,792.00
2023-01-25T12:50:53.586Z,772.00
2023-01-25T12:51:53.579Z,720.00
2023-01-25T12:52:53.778Z,688.00
2023-01-25T12:53:53.549Z,668.00
2023-01-25T12:54:55.265Z,664.00
2023-01-25T12:55:53.519Z,636.00
2023-01-25T12:56:53.535Z,636.00